sensor_id;sensor_type;location;lat;lon;timestamp;P1;durP1;ratioP1;P2;durP2;ratioP2
5965;SDS011;3009;43.224;27.976;2023-02-16T00:01:25;17.57;;;8.20;;
5965;SDS011;3009;43.224;27.976;2023-02-16T00:03:56;14.47;;;7.60;;
5965;SDS011;3009;43.224;27.976;2023-02-16T00:06:24;15.10;;;7.63;;
5965;SDS011;3009;43.224;27.976;2023-02-16T00:08:54;12.33;;;6.30;;
5965;SDS011;3009;43.224;27.976;2023-02-16T00:11:25;13.30;;;7.63;;
5965;SDS011;3009;43.224;27.976;2023-02-16T00:14:12;15.10;;;7.53;;
5965;SDS011;3009;43.224;27.976;2023-02-16T00:16:42;10.87;;;7.20;;
5965;SDS011;3009;43.224;27.976;2023-02-16T00:19:17;10.83;;;6.20;;
5965;SDS011;3009;43.224;27.976;2023-02-16T00:21:47;17.47;;;8.10;;
5965;SDS011;3009;43.224;27.976;2023-02-16T00:24:16;14.03;;;7.20;;
5965;SDS011;3009;43.224;27.976;2023-02-16T00:26:45;10.87;;;6.70;;
5965;SDS011;3009;43.224;27.976;2023-02-16T00:29:15;13.10;;;7.77;;
5965;SDS011;3009;43.224;27.976;2023-02-16T00:31:47;13.17;;;7.30;;
5965;SDS011;3009;43.224;27.976;2023-02-16T00:34:27;12.20;;;6.50;;
5965;SDS011;3009;43.224;27.976;2023-02-16T00:36:58;12.43;;;6.37;;
5965;SDS011;3009;43.224;27.976;2023-02-16T00:39:28;10.60;;;6.77;;
5965;SDS011;3009;43.224;27.976;2023-02-16T00:41:57;9.23;;;6.20;;
5965;SDS011;3009;43.224;27.976;2023-02-16T00:44:29;11.80;;;6.30;;
5965;SDS011;3009;43.224;27.976;2023-02-16T00:47:02;8.13;;;6.27;;
5965;SDS011;3009;43.224;27.976;2023-02-16T00:49:38;13.30;;;7.33;;
5965;SDS011;3009;43.224;27.976;2023-02-16T00:52:09;10.17;;;6.83;;
5965;SDS011;3009;43.224;27.976;2023-02-16T00:54:54;11.43;;;6.43;;
5965;SDS011;3009;43.224;27.976;2023-02-16T00:57:23;10.23;;;5.83;;
5965;SDS011;3009;43.224;27.976;2023-02-16T00:59:57;8.47;;;5.80;;
5965;SDS011;3009;43.224;27.976;2023-02-16T01:02:31;7.63;;;5.67;;
5965;SDS011;3009;43.224;27.976;2023-02-16T01:04:59;11.13;;;5.40;;
5965;SDS011;3009;43.224;27.976;2023-02-16T01:07:27;6.10;;;5.10;;
5965;SDS011;3009;43.224;27.976;2023-02-16T01:10:13;15.83;;;6.10;;
5965;SDS011;3009;43.224;27.976;2023-02-16T01:12:58;14.90;;;6.70;;
5965;SDS011;3009;43.224;27.976;2023-02-16T01:15:27;16.30;;;8.33;;
5965;SDS011;3009;43.224;27.976;2023-02-16T01:17:57;12.97;;;7.20;;
5965;SDS011;3009;43.224;27.976;2023-02-16T01:20:25;11.37;;;6.97;;
5965;SDS011;3009;43.224;27.976;2023-02-16T01:22:54;10.87;;;7.10;;
5965;SDS011;3009;43.224;27.976;2023-02-16T01:25:23;12.97;;;8.00;;
5965;SDS011;3009;43.224;27.976;2023-02-16T01:27:51;11.17;;;7.50;;
5965;SDS011;3009;43.224;27.976;2023-02-16T01:30:20;18.23;;;8.33;;
5965;SDS011;3009;43.224;27.976;2023-02-16T01:32:50;11.70;;;7.70;;
5965;SDS011;3009;43.224;27.976;2023-02-16T01:35:20;13.40;;;7.13;;
5965;SDS011;3009;43.224;27.976;2023-02-16T01:37:51;11.20;;;6.80;;
5965;SDS011;3009;43.224;27.976;2023-02-16T01:40:22;9.70;;;6.73;;
5965;SDS011;3009;43.224;27.976;2023-02-16T01:42:57;9.00;;;6.27;;
5965;SDS011;3009;43.224;27.976;2023-02-16T01:45:31;9.70;;;6.70;;
5965;SDS011;3009;43.224;27.976;2023-02-16T01:48:02;12.97;;;7.67;;
5965;SDS011;3009;43.224;27.976;2023-02-16T01:50:40;15.60;;;8.93;;
5965;SDS011;3009;43.224;27.976;2023-02-16T01:53:16;15.33;;;8.60;;
5965;SDS011;3009;43.224;27.976;2023-02-16T01:55:48;15.80;;;7.47;;
5965;SDS011;3009;43.224;27.976;2023-02-16T01:58:25;11.80;;;6.97;;
5965;SDS011;3009;43.224;27.976;2023-02-16T02:04:10;9.43;;;6.23;;
5965;SDS011;3009;43.224;27.976;2023-02-16T02:07:02;12.77;;;7.33;;
5965;SDS011;3009;43.224;27.976;2023-02-16T02:09:33;12.93;;;8.23;;
5965;SDS011;3009;43.224;27.976;2023-02-16T02:12:09;11.50;;;6.30;;
5965;SDS011;3009;43.224;27.976;2023-02-16T02:14:45;14.20;;;6.77;;
5965;SDS011;3009;43.224;27.976;2023-02-16T02:17:15;11.00;;;6.90;;
5965;SDS011;3009;43.224;27.976;2023-02-16T02:19:49;12.37;;;7.03;;
5965;SDS011;3009;43.224;27.976;2023-02-16T02:26:08;10.93;;;7.10;;
5965;SDS011;3009;43.224;27.976;2023-02-16T02:28:57;10.93;;;6.57;;
5965;SDS011;3009;43.224;27.976;2023-02-16T02:31:35;12.17;;;6.23;;
5965;SDS011;3009;43.224;27.976;2023-02-16T02:34:16;10.73;;;6.63;;
5965;SDS011;3009;43.224;27.976;2023-02-16T02:36:55;8.90;;;6.07;;
5965;SDS011;3009;43.224;27.976;2023-02-16T02:39:37;9.57;;;6.77;;
5965;SDS011;3009;43.224;27.976;2023-02-16T02:42:13;10.33;;;6.90;;
5965;SDS011;3009;43.224;27.976;2023-02-16T02:44:52;10.83;;;7.47;;
5965;SDS011;3009;43.224;27.976;2023-02-16T02:47:35;13.50;;;6.67;;
5965;SDS011;3009;43.224;27.976;2023-02-16T02:53:28;11.27;;;7.10;;
5965;SDS011;3009;43.224;27.976;2023-02-16T02:55:57;16.93;;;8.43;;
5965;SDS011;3009;43.224;27.976;2023-02-16T02:58:44;11.23;;;7.63;;
5965;SDS011;3009;43.224;27.976;2023-02-16T03:01:35;9.67;;;7.30;;
5965;SDS011;3009;43.224;27.976;2023-02-16T03:04:07;11.40;;;7.40;;
5965;SDS011;3009;43.224;27.976;2023-02-16T03:06:41;10.40;;;7.33;;
5965;SDS011;3009;43.224;27.976;2023-02-16T03:09:14;12.07;;;7.23;;
5965;SDS011;3009;43.224;27.976;2023-02-16T03:11:43;12.80;;;7.90;;
5965;SDS011;3009;43.224;27.976;2023-02-16T03:14:31;10.73;;;7.20;;
5965;SDS011;3009;43.224;27.976;2023-02-16T03:17:03;10.50;;;6.80;;
5965;SDS011;3009;43.224;27.976;2023-02-16T03:19:53;9.00;;;6.37;;
5965;SDS011;3009;43.224;27.976;2023-02-16T03:22:40;9.73;;;7.00;;
5965;SDS011;3009;43.224;27.976;2023-02-16T03:25:27;11.03;;;7.23;;
5965;SDS011;3009;43.224;27.976;2023-02-16T03:28:15;11.83;;;7.27;;
5965;SDS011;3009;43.224;27.976;2023-02-16T03:31:03;11.70;;;7.03;;
5965;SDS011;3009;43.224;27.976;2023-02-16T03:33:34;14.13;;;7.47;;
5965;SDS011;3009;43.224;27.976;2023-02-16T03:36:03;12.73;;;7.53;;
5965;SDS011;3009;43.224;27.976;2023-02-16T03:38:33;18.20;;;9.83;;
5965;SDS011;3009;43.224;27.976;2023-02-16T03:41:03;16.10;;;8.77;;
5965;SDS011;3009;43.224;27.976;2023-02-16T03:43:31;17.90;;;9.27;;
5965;SDS011;3009;43.224;27.976;2023-02-16T03:46:00;15.53;;;8.13;;
5965;SDS011;3009;43.224;27.976;2023-02-16T03:48:28;14.93;;;8.43;;
5965;SDS011;3009;43.224;27.976;2023-02-16T03:50:57;12.27;;;7.50;;
5965;SDS011;3009;43.224;27.976;2023-02-16T03:53:26;16.67;;;9.30;;
5965;SDS011;3009;43.224;27.976;2023-02-16T03:55:54;11.97;;;7.80;;
5965;SDS011;3009;43.224;27.976;2023-02-16T03:58:22;14.07;;;8.47;;
5965;SDS011;3009;43.224;27.976;2023-02-16T04:00:51;18.33;;;8.47;;
5965;SDS011;3009;43.224;27.976;2023-02-16T04:03:20;12.23;;;7.93;;
5965;SDS011;3009;43.224;27.976;2023-02-16T04:05:48;14.23;;;8.37;;
5965;SDS011;3009;43.224;27.976;2023-02-16T04:08:17;14.43;;;7.90;;
5965;SDS011;3009;43.224;27.976;2023-02-16T04:10:45;12.50;;;8.23;;
5965;SDS011;3009;43.224;27.976;2023-02-16T04:13:14;15.43;;;8.60;;
5965;SDS011;3009;43.224;27.976;2023-02-16T04:15:41;13.07;;;7.63;;
5965;SDS011;3009;43.224;27.976;2023-02-16T04:18:09;11.47;;;7.40;;
5965;SDS011;3009;43.224;27.976;2023-02-16T04:20:37;10.43;;;7.20;;
5965;SDS011;3009;43.224;27.976;2023-02-16T04:23:05;15.60;;;7.60;;
5965;SDS011;3009;43.224;27.976;2023-02-16T04:25:35;14.87;;;8.20;;
5965;SDS011;3009;43.224;27.976;2023-02-16T04:28:03;12.30;;;8.13;;
5965;SDS011;3009;43.224;27.976;2023-02-16T04:30:31;14.53;;;7.80;;
5965;SDS011;3009;43.224;27.976;2023-02-16T04:33:00;11.80;;;7.60;;
5965;SDS011;3009;43.224;27.976;2023-02-16T04:35:28;11.97;;;7.20;;
5965;SDS011;3009;43.224;27.976;2023-02-16T04:37:56;15.30;;;8.63;;
5965;SDS011;3009;43.224;27.976;2023-02-16T04:40:24;12.80;;;7.67;;
5965;SDS011;3009;43.224;27.976;2023-02-16T04:42:54;11.17;;;7.57;;
5965;SDS011;3009;43.224;27.976;2023-02-16T04:45:22;13.90;;;7.80;;
5965;SDS011;3009;43.224;27.976;2023-02-16T04:47:50;17.23;;;10.20;;
5965;SDS011;3009;43.224;27.976;2023-02-16T04:50:19;14.90;;;8.90;;
5965;SDS011;3009;43.224;27.976;2023-02-16T04:52:47;14.97;;;8.57;;
5965;SDS011;3009;43.224;27.976;2023-02-16T04:55:15;21.43;;;12.13;;
5965;SDS011;3009;43.224;27.976;2023-02-16T04:57:43;19.13;;;11.63;;
5965;SDS011;3009;43.224;27.976;2023-02-16T05:00:13;17.67;;;9.00;;
5965;SDS011;3009;43.224;27.976;2023-02-16T05:02:42;14.10;;;7.93;;
5965;SDS011;3009;43.224;27.976;2023-02-16T05:05:10;22.27;;;10.90;;
5965;SDS011;3009;43.224;27.976;2023-02-16T05:07:38;19.03;;;10.87;;
5965;SDS011;3009;43.224;27.976;2023-02-16T05:10:06;17.30;;;11.67;;
5965;SDS011;3009;43.224;27.976;2023-02-16T05:12:35;16.30;;;8.97;;
5965;SDS011;3009;43.224;27.976;2023-02-16T05:15:22;17.10;;;9.60;;
5965;SDS011;3009;43.224;27.976;2023-02-16T05:17:51;18.40;;;9.13;;
5965;SDS011;3009;43.224;27.976;2023-02-16T05:20:19;18.40;;;9.13;;
5965;SDS011;3009;43.224;27.976;2023-02-16T05:23:09;17.23;;;9.80;;
5965;SDS011;3009;43.224;27.976;2023-02-16T05:25:37;21.57;;;11.43;;
5965;SDS011;3009;43.224;27.976;2023-02-16T05:28:05;34.10;;;9.50;;
5965;SDS011;3009;43.224;27.976;2023-02-16T05:30:35;16.50;;;8.90;;
5965;SDS011;3009;43.224;27.976;2023-02-16T05:33:03;22.57;;;8.97;;
5965;SDS011;3009;43.224;27.976;2023-02-16T05:35:32;18.60;;;9.10;;
5965;SDS011;3009;43.224;27.976;2023-02-16T05:38:01;15.90;;;8.37;;
5965;SDS011;3009;43.224;27.976;2023-02-16T05:40:29;16.90;;;8.67;;
5965;SDS011;3009;43.224;27.976;2023-02-16T05:42:57;20.80;;;9.40;;
5965;SDS011;3009;43.224;27.976;2023-02-16T05:45:25;16.10;;;9.40;;
5965;SDS011;3009;43.224;27.976;2023-02-16T05:47:55;20.23;;;8.27;;
5965;SDS011;3009;43.224;27.976;2023-02-16T05:50:23;11.97;;;7.60;;
5965;SDS011;3009;43.224;27.976;2023-02-16T05:52:51;12.97;;;8.40;;
5965;SDS011;3009;43.224;27.976;2023-02-16T05:55:19;17.60;;;8.23;;
5965;SDS011;3009;43.224;27.976;2023-02-16T05:57:47;16.80;;;8.07;;
5965;SDS011;3009;43.224;27.976;2023-02-16T06:00:16;14.03;;;6.43;;
5965;SDS011;3009;43.224;27.976;2023-02-16T06:02:44;20.80;;;6.77;;
5965;SDS011;3009;43.224;27.976;2023-02-16T06:05:14;10.77;;;6.20;;
5965;SDS011;3009;43.224;27.976;2023-02-16T06:07:43;12.97;;;7.67;;
5965;SDS011;3009;43.224;27.976;2023-02-16T06:10:12;10.80;;;6.60;;
5965;SDS011;3009;43.224;27.976;2023-02-16T06:12:41;13.43;;;6.10;;
5965;SDS011;3009;43.224;27.976;2023-02-16T06:15:10;11.20;;;7.50;;
5965;SDS011;3009;43.224;27.976;2023-02-16T06:17:38;9.40;;;6.27;;
5965;SDS011;3009;43.224;27.976;2023-02-16T06:20:07;8.13;;;6.10;;
5965;SDS011;3009;43.224;27.976;2023-02-16T06:22:37;11.10;;;6.70;;
5965;SDS011;3009;43.224;27.976;2023-02-16T06:25:06;8.73;;;6.23;;
5965;SDS011;3009;43.224;27.976;2023-02-16T06:27:34;11.00;;;6.13;;
5965;SDS011;3009;43.224;27.976;2023-02-16T06:30:02;7.27;;;5.50;;
5965;SDS011;3009;43.224;27.976;2023-02-16T06:32:31;9.70;;;5.40;;
5965;SDS011;3009;43.224;27.976;2023-02-16T06:34:59;8.43;;;5.97;;
5965;SDS011;3009;43.224;27.976;2023-02-16T06:37:28;8.80;;;5.53;;
5965;SDS011;3009;43.224;27.976;2023-02-16T06:39:57;6.90;;;5.53;;
5965;SDS011;3009;43.224;27.976;2023-02-16T06:42:25;7.97;;;5.17;;
5965;SDS011;3009;43.224;27.976;2023-02-16T06:44:53;13.80;;;5.90;;
5965;SDS011;3009;43.224;27.976;2023-02-16T06:47:21;10.77;;;5.30;;
5965;SDS011;3009;43.224;27.976;2023-02-16T06:49:49;11.17;;;6.33;;
5965;SDS011;3009;43.224;27.976;2023-02-16T06:52:18;10.30;;;7.50;;
5965;SDS011;3009;43.224;27.976;2023-02-16T06:54:46;12.20;;;8.20;;
5965;SDS011;3009;43.224;27.976;2023-02-16T06:57:15;14.60;;;8.27;;
5965;SDS011;3009;43.224;27.976;2023-02-16T06:59:44;21.00;;;12.93;;
5965;SDS011;3009;43.224;27.976;2023-02-16T07:02:12;30.77;;;18.00;;
5965;SDS011;3009;43.224;27.976;2023-02-16T07:04:40;33.33;;;21.47;;
5965;SDS011;3009;43.224;27.976;2023-02-16T07:07:08;24.90;;;14.00;;
5965;SDS011;3009;43.224;27.976;2023-02-16T07:09:36;25.87;;;15.20;;
5965;SDS011;3009;43.224;27.976;2023-02-16T07:12:04;21.63;;;11.57;;
5965;SDS011;3009;43.224;27.976;2023-02-16T07:14:35;13.63;;;10.17;;
5965;SDS011;3009;43.224;27.976;2023-02-16T07:17:05;18.17;;;9.90;;
5965;SDS011;3009;43.224;27.976;2023-02-16T07:19:34;21.67;;;9.70;;
5965;SDS011;3009;43.224;27.976;2023-02-16T07:22:02;18.37;;;10.63;;
5965;SDS011;3009;43.224;27.976;2023-02-16T07:24:30;22.30;;;10.20;;
5965;SDS011;3009;43.224;27.976;2023-02-16T07:26:58;22.53;;;9.80;;
5965;SDS011;3009;43.224;27.976;2023-02-16T07:29:27;23.53;;;11.03;;
5965;SDS011;3009;43.224;27.976;2023-02-16T07:31:56;22.07;;;11.63;;
5965;SDS011;3009;43.224;27.976;2023-02-16T07:34:25;16.73;;;10.50;;
5965;SDS011;3009;43.224;27.976;2023-02-16T07:36:53;17.50;;;11.63;;
5965;SDS011;3009;43.224;27.976;2023-02-16T07:39:21;16.10;;;8.80;;
5965;SDS011;3009;43.224;27.976;2023-02-16T07:41:49;17.37;;;10.13;;
5965;SDS011;3009;43.224;27.976;2023-02-16T07:44:18;18.00;;;9.50;;
5965;SDS011;3009;43.224;27.976;2023-02-16T07:46:46;16.60;;;9.50;;
5965;SDS011;3009;43.224;27.976;2023-02-16T07:49:15;12.43;;;8.20;;
5965;SDS011;3009;43.224;27.976;2023-02-16T07:51:43;17.97;;;9.73;;
5965;SDS011;3009;43.224;27.976;2023-02-16T07:54:12;17.50;;;9.73;;
5965;SDS011;3009;43.224;27.976;2023-02-16T07:56:40;19.60;;;11.93;;
5965;SDS011;3009;43.224;27.976;2023-02-16T07:59:08;26.43;;;11.90;;
5965;SDS011;3009;43.224;27.976;2023-02-16T08:01:36;23.53;;;12.40;;
5965;SDS011;3009;43.224;27.976;2023-02-16T08:04:05;24.87;;;12.70;;
5965;SDS011;3009;43.224;27.976;2023-02-16T08:06:35;27.27;;;13.30;;
5965;SDS011;3009;43.224;27.976;2023-02-16T08:09:03;21.53;;;13.30;;
5965;SDS011;3009;43.224;27.976;2023-02-16T08:11:31;25.27;;;14.20;;
5965;SDS011;3009;43.224;27.976;2023-02-16T08:14:00;25.10;;;14.00;;
5965;SDS011;3009;43.224;27.976;2023-02-16T08:16:28;27.80;;;14.70;;
5965;SDS011;3009;43.224;27.976;2023-02-16T08:18:57;26.40;;;16.00;;
5965;SDS011;3009;43.224;27.976;2023-02-16T08:21:27;29.80;;;14.37;;
5965;SDS011;3009;43.224;27.976;2023-02-16T08:23:58;37.10;;;14.97;;
5965;SDS011;3009;43.224;27.976;2023-02-16T08:26:29;31.40;;;15.70;;
5965;SDS011;3009;43.224;27.976;2023-02-16T08:29:02;22.93;;;12.67;;
5965;SDS011;3009;43.224;27.976;2023-02-16T08:31:32;20.00;;;12.70;;
5965;SDS011;3009;43.224;27.976;2023-02-16T08:34:02;23.90;;;13.43;;
5965;SDS011;3009;43.224;27.976;2023-02-16T08:36:31;24.47;;;14.83;;
5965;SDS011;3009;43.224;27.976;2023-02-16T08:39:03;24.23;;;13.43;;
5965;SDS011;3009;43.224;27.976;2023-02-16T08:41:32;21.20;;;12.87;;
5965;SDS011;3009;43.224;27.976;2023-02-16T08:44:02;22.57;;;14.03;;
5965;SDS011;3009;43.224;27.976;2023-02-16T08:46:31;25.53;;;14.13;;
5965;SDS011;3009;43.224;27.976;2023-02-16T08:49:00;28.70;;;14.90;;
5965;SDS011;3009;43.224;27.976;2023-02-16T08:51:30;22.90;;;13.57;;
5965;SDS011;3009;43.224;27.976;2023-02-16T08:54:00;27.87;;;14.83;;
5965;SDS011;3009;43.224;27.976;2023-02-16T08:56:31;29.50;;;12.90;;
5965;SDS011;3009;43.224;27.976;2023-02-16T08:59:00;21.53;;;12.97;;
5965;SDS011;3009;43.224;27.976;2023-02-16T09:01:28;34.33;;;13.77;;
5965;SDS011;3009;43.224;27.976;2023-02-16T09:03:57;28.63;;;14.00;;
5965;SDS011;3009;43.224;27.976;2023-02-16T09:06:25;23.93;;;12.73;;
5965;SDS011;3009;43.224;27.976;2023-02-16T09:08:54;18.40;;;12.33;;
5965;SDS011;3009;43.224;27.976;2023-02-16T09:11:24;32.93;;;14.33;;
5965;SDS011;3009;43.224;27.976;2023-02-16T09:13:53;21.50;;;13.60;;
5965;SDS011;3009;43.224;27.976;2023-02-16T09:16:21;24.93;;;14.57;;
5965;SDS011;3009;43.224;27.976;2023-02-16T09:18:50;26.50;;;13.60;;
5965;SDS011;3009;43.224;27.976;2023-02-16T09:21:19;27.90;;;14.70;;
5965;SDS011;3009;43.224;27.976;2023-02-16T09:23:52;30.60;;;15.90;;
5965;SDS011;3009;43.224;27.976;2023-02-16T09:26:23;25.40;;;16.37;;
5965;SDS011;3009;43.224;27.976;2023-02-16T09:28:54;27.93;;;16.90;;
5965;SDS011;3009;43.224;27.976;2023-02-16T09:31:26;30.07;;;17.60;;
5965;SDS011;3009;43.224;27.976;2023-02-16T09:33:58;28.17;;;16.50;;
5965;SDS011;3009;43.224;27.976;2023-02-16T09:36:28;52.20;;;18.90;;
5965;SDS011;3009;43.224;27.976;2023-02-16T09:38:57;30.80;;;16.50;;
5965;SDS011;3009;43.224;27.976;2023-02-16T09:41:29;28.00;;;17.10;;
5965;SDS011;3009;43.224;27.976;2023-02-16T09:44:05;25.57;;;14.93;;
5965;SDS011;3009;43.224;27.976;2023-02-16T09:46:44;24.07;;;14.30;;
5965;SDS011;3009;43.224;27.976;2023-02-16T09:49:16;30.30;;;14.50;;
5965;SDS011;3009;43.224;27.976;2023-02-16T09:51:55;27.03;;;13.70;;
5965;SDS011;3009;43.224;27.976;2023-02-16T09:54:32;28.27;;;14.60;;
5965;SDS011;3009;43.224;27.976;2023-02-16T09:57:16;28.50;;;13.23;;
5965;SDS011;3009;43.224;27.976;2023-02-16T09:59:50;19.70;;;12.20;;
5965;SDS011;3009;43.224;27.976;2023-02-16T10:02:32;22.13;;;11.50;;
5965;SDS011;3009;43.224;27.976;2023-02-16T10:05:17;18.20;;;11.50;;
5965;SDS011;3009;43.224;27.976;2023-02-16T10:10:36;16.27;;;10.57;;
5965;SDS011;3009;43.224;27.976;2023-02-16T10:13:14;16.70;;;11.03;;
5965;SDS011;3009;43.224;27.976;2023-02-16T10:15:48;22.17;;;9.00;;
5965;SDS011;3009;43.224;27.976;2023-02-16T10:18:21;12.53;;;8.83;;
5965;SDS011;3009;43.224;27.976;2023-02-16T10:20:54;19.97;;;9.87;;
5965;SDS011;3009;43.224;27.976;2023-02-16T10:23:32;15.63;;;9.23;;
5965;SDS011;3009;43.224;27.976;2023-02-16T10:26:13;14.83;;;9.90;;
5965;SDS011;3009;43.224;27.976;2023-02-16T10:28:47;20.03;;;10.00;;
5965;SDS011;3009;43.224;27.976;2023-02-16T10:31:19;16.33;;;9.80;;
5965;SDS011;3009;43.224;27.976;2023-02-16T10:33:57;13.13;;;8.83;;
5965;SDS011;3009;43.224;27.976;2023-02-16T10:36:39;18.57;;;9.80;;
5965;SDS011;3009;43.224;27.976;2023-02-16T10:39:20;20.60;;;10.07;;
5965;SDS011;3009;43.224;27.976;2023-02-16T10:41:54;16.20;;;10.07;;
5965;SDS011;3009;43.224;27.976;2023-02-16T10:44:32;17.10;;;9.83;;
5965;SDS011;3009;43.224;27.976;2023-02-16T10:47:08;22.63;;;12.97;;
5965;SDS011;3009;43.224;27.976;2023-02-16T10:49:49;23.97;;;15.00;;
5965;SDS011;3009;43.224;27.976;2023-02-16T10:52:18;16.20;;;11.90;;
5965;SDS011;3009;43.224;27.976;2023-02-16T10:54:47;21.40;;;13.27;;
5965;SDS011;3009;43.224;27.976;2023-02-16T10:57:19;22.50;;;14.57;;
5965;SDS011;3009;43.224;27.976;2023-02-16T10:59:55;19.70;;;13.10;;
5965;SDS011;3009;43.224;27.976;2023-02-16T11:02:26;20.77;;;12.70;;
5965;SDS011;3009;43.224;27.976;2023-02-16T11:04:57;19.17;;;11.70;;
5965;SDS011;3009;43.224;27.976;2023-02-16T11:07:27;21.40;;;12.83;;
5965;SDS011;3009;43.224;27.976;2023-02-16T11:09:58;18.57;;;12.03;;
5965;SDS011;3009;43.224;27.976;2023-02-16T11:12:28;17.40;;;12.43;;
5965;SDS011;3009;43.224;27.976;2023-02-16T11:15:01;17.57;;;11.50;;
5965;SDS011;3009;43.224;27.976;2023-02-16T11:17:32;15.30;;;11.00;;
5965;SDS011;3009;43.224;27.976;2023-02-16T11:23:01;23.53;;;12.40;;
5965;SDS011;3009;43.224;27.976;2023-02-16T11:25:40;19.30;;;11.37;;
5965;SDS011;3009;43.224;27.976;2023-02-16T11:28:08;18.30;;;11.57;;
5965;SDS011;3009;43.224;27.976;2023-02-16T11:30:39;15.83;;;10.67;;
5965;SDS011;3009;43.224;27.976;2023-02-16T11:33:17;18.60;;;12.07;;
5965;SDS011;3009;43.224;27.976;2023-02-16T11:35:48;24.50;;;11.60;;
5965;SDS011;3009;43.224;27.976;2023-02-16T11:41:04;18.40;;;12.07;;
5965;SDS011;3009;43.224;27.976;2023-02-16T11:43:34;19.57;;;12.43;;
5965;SDS011;3009;43.224;27.976;2023-02-16T11:46:06;18.97;;;13.03;;
5965;SDS011;3009;43.224;27.976;2023-02-16T11:48:42;20.83;;;12.70;;
5965;SDS011;3009;43.224;27.976;2023-02-16T11:51:12;19.93;;;12.23;;
5965;SDS011;3009;43.224;27.976;2023-02-16T11:53:42;20.47;;;11.40;;
5965;SDS011;3009;43.224;27.976;2023-02-16T11:56:22;19.13;;;11.90;;
5965;SDS011;3009;43.224;27.976;2023-02-16T11:59:06;23.87;;;13.40;;
5965;SDS011;3009;43.224;27.976;2023-02-16T12:01:54;25.83;;;13.23;;
5965;SDS011;3009;43.224;27.976;2023-02-16T12:04:49;19.53;;;11.90;;
5965;SDS011;3009;43.224;27.976;2023-02-16T12:07:32;18.93;;;11.43;;
5965;SDS011;3009;43.224;27.976;2023-02-16T12:10:11;18.97;;;11.77;;
5965;SDS011;3009;43.224;27.976;2023-02-16T12:12:49;24.20;;;13.60;;
5965;SDS011;3009;43.224;27.976;2023-02-16T12:15:25;22.23;;;13.20;;
5965;SDS011;3009;43.224;27.976;2023-02-16T12:18:03;24.73;;;14.07;;
5965;SDS011;3009;43.224;27.976;2023-02-16T12:20:45;20.90;;;13.20;;
5965;SDS011;3009;43.224;27.976;2023-02-16T12:23:27;25.63;;;13.00;;
5965;SDS011;3009;43.224;27.976;2023-02-16T12:26:10;25.23;;;14.33;;
5965;SDS011;3009;43.224;27.976;2023-02-16T12:28:54;23.43;;;14.03;;
5965;SDS011;3009;43.224;27.976;2023-02-16T12:31:42;24.93;;;14.83;;
5965;SDS011;3009;43.224;27.976;2023-02-16T12:34:26;22.97;;;14.83;;
5965;SDS011;3009;43.224;27.976;2023-02-16T12:36:59;23.07;;;14.53;;
5965;SDS011;3009;43.224;27.976;2023-02-16T12:39:34;29.07;;;14.80;;
5965;SDS011;3009;43.224;27.976;2023-02-16T12:42:31;25.50;;;15.00;;
5965;SDS011;3009;43.224;27.976;2023-02-16T12:45:10;25.07;;;15.10;;
5965;SDS011;3009;43.224;27.976;2023-02-16T12:47:44;23.73;;;14.03;;
5965;SDS011;3009;43.224;27.976;2023-02-16T12:50:19;25.70;;;15.63;;
5965;SDS011;3009;43.224;27.976;2023-02-16T12:52:50;22.50;;;13.77;;
5965;SDS011;3009;43.224;27.976;2023-02-16T12:55:24;29.33;;;15.03;;
5965;SDS011;3009;43.224;27.976;2023-02-16T12:57:57;20.50;;;13.50;;
5965;SDS011;3009;43.224;27.976;2023-02-16T13:00:38;22.30;;;13.80;;
5965;SDS011;3009;43.224;27.976;2023-02-16T13:03:19;25.30;;;14.43;;
5965;SDS011;3009;43.224;27.976;2023-02-16T13:05:59;40.67;;;16.27;;
5965;SDS011;3009;43.224;27.976;2023-02-16T13:08:35;24.30;;;13.97;;
5965;SDS011;3009;43.224;27.976;2023-02-16T13:11:12;27.27;;;14.43;;
5965;SDS011;3009;43.224;27.976;2023-02-16T13:13:46;34.60;;;18.23;;
5965;SDS011;3009;43.224;27.976;2023-02-16T13:16:17;26.50;;;13.70;;
5965;SDS011;3009;43.224;27.976;2023-02-16T13:18:56;45.37;;;24.00;;
5965;SDS011;3009;43.224;27.976;2023-02-16T13:21:34;30.07;;;15.57;;
5965;SDS011;3009;43.224;27.976;2023-02-16T13:24:29;33.00;;;18.17;;
5965;SDS011;3009;43.224;27.976;2023-02-16T13:27:11;24.17;;;15.07;;
5965;SDS011;3009;43.224;27.976;2023-02-16T13:32:57;22.13;;;12.93;;
5965;SDS011;3009;43.224;27.976;2023-02-16T13:35:40;21.73;;;11.70;;
5965;SDS011;3009;43.224;27.976;2023-02-16T13:44:39;20.97;;;14.10;;
5965;SDS011;3009;43.224;27.976;2023-02-16T13:47:11;23.00;;;13.43;;
5965;SDS011;3009;43.224;27.976;2023-02-16T13:49:43;19.17;;;12.93;;
5965;SDS011;3009;43.224;27.976;2023-02-16T13:52:25;24.13;;;14.47;;
5965;SDS011;3009;43.224;27.976;2023-02-16T13:54:57;22.33;;;14.17;;
5965;SDS011;3009;43.224;27.976;2023-02-16T14:00:33;18.73;;;11.73;;
5965;SDS011;3009;43.224;27.976;2023-02-16T14:03:04;23.20;;;13.80;;
5965;SDS011;3009;43.224;27.976;2023-02-16T14:05:39;23.37;;;13.07;;
5965;SDS011;3009;43.224;27.976;2023-02-16T14:08:12;21.23;;;13.00;;
5965;SDS011;3009;43.224;27.976;2023-02-16T14:10:56;21.83;;;12.27;;
5965;SDS011;3009;43.224;27.976;2023-02-16T14:13:49;45.90;;;13.30;;
5965;SDS011;3009;43.224;27.976;2023-02-16T14:16:33;20.30;;;11.27;;
5965;SDS011;3009;43.224;27.976;2023-02-16T14:19:03;19.83;;;10.90;;
5965;SDS011;3009;43.224;27.976;2023-02-16T14:21:43;25.20;;;13.50;;
5965;SDS011;3009;43.224;27.976;2023-02-16T14:24:21;22.40;;;12.47;;
5965;SDS011;3009;43.224;27.976;2023-02-16T14:26:57;24.13;;;11.23;;
5965;SDS011;3009;43.224;27.976;2023-02-16T14:29:28;16.80;;;11.33;;
5965;SDS011;3009;43.224;27.976;2023-02-16T14:32:01;21.13;;;12.13;;
5965;SDS011;3009;43.224;27.976;2023-02-16T14:34:37;21.23;;;13.30;;
5965;SDS011;3009;43.224;27.976;2023-02-16T14:40:02;22.20;;;13.53;;
5965;SDS011;3009;43.224;27.976;2023-02-16T14:42:43;17.80;;;11.57;;
5965;SDS011;3009;43.224;27.976;2023-02-16T14:48:26;17.93;;;11.37;;
5965;SDS011;3009;43.224;27.976;2023-02-16T14:51:21;30.60;;;14.80;;
5965;SDS011;3009;43.224;27.976;2023-02-16T14:54:07;26.23;;;13.33;;
5965;SDS011;3009;43.224;27.976;2023-02-16T14:57:03;23.73;;;13.50;;
5965;SDS011;3009;43.224;27.976;2023-02-16T14:59:39;24.63;;;15.13;;
5965;SDS011;3009;43.224;27.976;2023-02-16T15:02:29;23.23;;;14.47;;
5965;SDS011;3009;43.224;27.976;2023-02-16T15:05:13;23.20;;;14.57;;
5965;SDS011;3009;43.224;27.976;2023-02-16T15:07:44;21.90;;;13.20;;
5965;SDS011;3009;43.224;27.976;2023-02-16T15:10:16;22.53;;;13.90;;
5965;SDS011;3009;43.224;27.976;2023-02-16T15:12:52;23.23;;;14.63;;
5965;SDS011;3009;43.224;27.976;2023-02-16T15:15:24;33.33;;;14.17;;
5965;SDS011;3009;43.224;27.976;2023-02-16T15:17:59;31.03;;;16.17;;
5965;SDS011;3009;43.224;27.976;2023-02-16T15:20:29;26.30;;;14.40;;
5965;SDS011;3009;43.224;27.976;2023-02-16T15:23:00;21.30;;;13.37;;
5965;SDS011;3009;43.224;27.976;2023-02-16T15:25:32;35.17;;;15.17;;
5965;SDS011;3009;43.224;27.976;2023-02-16T15:28:13;20.37;;;13.23;;
5965;SDS011;3009;43.224;27.976;2023-02-16T15:30:49;24.47;;;14.53;;
5965;SDS011;3009;43.224;27.976;2023-02-16T15:33:26;22.10;;;13.70;;
5965;SDS011;3009;43.224;27.976;2023-02-16T15:36:00;25.07;;;13.43;;
5965;SDS011;3009;43.224;27.976;2023-02-16T15:38:32;30.07;;;16.93;;
5965;SDS011;3009;43.224;27.976;2023-02-16T15:41:02;29.53;;;18.23;;
5965;SDS011;3009;43.224;27.976;2023-02-16T15:43:33;30.07;;;16.20;;
5965;SDS011;3009;43.224;27.976;2023-02-16T15:46:06;26.67;;;16.30;;
5965;SDS011;3009;43.224;27.976;2023-02-16T15:48:42;30.03;;;16.40;;
5965;SDS011;3009;43.224;27.976;2023-02-16T15:51:13;25.07;;;17.03;;
5965;SDS011;3009;43.224;27.976;2023-02-16T15:53:45;35.50;;;18.67;;